Saint Bernard Grove, Louisiana
Current Conditions -  °F | °C
As of 12:53 PM on Friday 21 Nov 2014 (Local Time) from KNEW Reporting Station
Few Clouds Few Clouds  
Wind Chill: 66°   Ceiling: Unl
Heat Index: 66°   Visibility: 10mi
Dew Point: 52°   Wind: 14mph
Humidity: 60%   Direction: 80°E
Pressure: 30.27"   Gusts: NA
Location:  29.9486°N, 89.8975°W
Report Text: KNEW 211853Z 08012KT 10SM FEW040 19/11 A3027 RMK AO2 SLP242 T01890111
Loading
Personal Weather Stations






























Interactive Weather Map New forecast layout! Learn more

10-Day Weather Forecast

Advertisements
Track Severe Weather on mobile